Time;durP1;ratioP1;P1;durP2;ratioP2;P2;SDS_P1;SDS_P2;PMS_P1;PMS_P2;Temp;Humidity;BMP_temperature;BMP_pressure;BME280_temperature;BME280_humidity;BME280_pressure;Samples;Min_cycle;Max_cycle;Signal;HPM_P1;HPM_P2
2022/05/03 00:00:03;;;;;;;7.13;4.38;;;;;;;;;;5119802;28;20065;-44
2022/05/03 00:02:46;;;;;;;4.82;2.10;;;;;;;;;;5124367;28;20039;-44
2022/05/03 00:05:30;;;;;;;4.65;2.70;;;;;;;;;;5124169;28;20118;-45
2022/05/03 00:08:03;;;;;;;4.25;2.08;;;;;;;;;;5123682;27;20678;-47
2022/05/03 00:10:28;;;;;;;4.55;2.78;;;;;;;;;;5125554;28;20051;-45
2022/05/03 00:13:01;;;;;;;13.43;3.22;;;;;;;;;;5125763;28;20525;-47
2022/05/03 00:15:27;;;;;;;16.85;3.28;;;;;;;;;;5120333;28;20510;-45
2022/05/03 00:17:53;;;;;;;12.07;4.70;;;;;;;;;;5120494;28;20513;-47
2022/05/03 00:20:20;;;;;;;7.43;4.65;;;;;;;;;;5120352;28;20051;-47
2022/05/03 00:22:45;;;;;;;6.70;4.68;;;;;;;;;;5120554;28;20043;-49
2022/05/03 00:25:10;;;;;;;11.27;4.05;;;;;;;;;;5120424;28;20043;-50
2022/05/03 00:27:36;;;;;;;5.63;3.85;;;;;;;;;;5120850;28;20057;-47
2022/05/03 00:30:03;;;;;;;6.47;3.30;;;;;;;;;;5120341;28;20047;-50
2022/05/03 00:32:28;;;;;;;6.22;4.13;;;;;;;;;;5120658;28;20141;-46
2022/05/03 00:34:55;;;;;;;3.25;2.25;;;;;;;;;;5120433;28;20054;-46
2022/05/03 00:37:21;;;;;;;5.85;3.55;;;;;;;;;;5119923;28;20057;-45
2022/05/03 00:39:46;;;;;;;3.38;2.38;;;;;;;;;;5120190;28;20047;-42
2022/05/03 00:42:17;;;;;;;4.57;2.03;;;;;;;;;;5120448;28;20050;-45
2022/05/03 00:45:01;;;;;;;;;;;;;;;;;;5120580;28;20038;-43
2022/05/03 00:47:31;;;;;;;2.00;1.30;;;;;;;;;;5120586;28;19915;-44
2022/05/03 00:50:02;;;;;;;3.22;2.10;;;;;;;;;;5114377;28;20184;-45
2022/05/03 00:52:30;;;;;;;2.15;1.95;;;;;;;;;;5120366;28;20047;-46
2022/05/03 00:55:13;;;;;;;3.92;1.63;;;;;;;;;;5119568;28;20055;-46
2022/05/03 00:57:38;;;;;;;1.10;0.90;;;;;;;;;;5120100;28;20457;-46
2022/05/03 01:00:06;;;;;;;1.73;1.33;;;;;;;;;;5120110;28;20526;-48
2022/05/03 01:02:39;;;;;;;1.58;1.27;;;;;;;;;;5119671;28;20441;-49
2022/05/03 01:05:11;;;;;;;9.63;2.03;;;;;;;;;;5095721;28;20353;-43
2022/05/03 01:07:47;;;;;;;2.03;1.15;;;;;;;;;;5119845;28;20074;-47
2022/05/03 01:10:31;;;;;;;2.38;1.67;;;;;;;;;;5120525;28;20154;-46
2022/05/03 01:13:02;;;;;;;3.35;2.35;;;;;;;;;;5119016;28;20043;-43
2022/05/03 01:15:30;;;;;;;7.90;2.95;;;;;;;;;;5120797;28;20650;-46
2022/05/03 01:18:15;;;;;;;5.72;2.70;;;;;;;;;;5123702;27;20211;-45
2022/05/03 01:20:40;;;;;;;8.30;3.28;;;;;;;;;;5126734;28;20541;-44
2022/05/03 01:23:31;;;;;;;9.00;4.32;;;;;;;;;;5128048;28;20081;-44
2022/05/03 01:25:57;;;;;;;;;;;;;;;;;;5079304;28;20168;-45
2022/05/03 01:28:43;;;;;;;4.50;3.30;;;;;;;;;;5128109;28;19915;-45
2022/05/03 01:31:12;;;;;;;5.13;4.13;;;;;;;;;;5121374;28;20039;-48
2022/05/03 01:33:41;;;;;;;9.30;3.67;;;;;;;;;;5123325;28;20051;-47
2022/05/03 01:36:07;;;;;;;12.35;4.20;;;;;;;;;;5123207;28;20085;-42
2022/05/03 01:38:33;;;;;;;8.98;3.95;;;;;;;;;;5123854;28;20158;-47
2022/05/03 01:41:10;;;;;;;6.15;4.00;;;;;;;;;;5122692;28;20058;-43
2022/05/03 01:43:35;;;;;;;8.10;4.38;;;;;;;;;;5118787;28;20180;-45
2022/05/03 01:46:15;;;;;;;9.30;4.57;;;;;;;;;;5123010;28;20690;-44
2022/05/03 01:52:15;;;;;;;9.85;3.45;;;;;;;;;;5076692;28;20058;-43
2022/05/03 01:54:50;;;;;;;5.30;3.65;;;;;;;;;;5121761;28;20051;-45
2022/05/03 01:57:18;;;;;;;7.63;4.93;;;;;;;;;;5119136;28;20051;-44
2022/05/03 01:59:57;;;;;;;7.82;3.90;;;;;;;;;;5122322;28;20046;-46
2022/05/03 02:02:29;;;;;;;12.50;4.13;;;;;;;;;;5122091;28;20047;-45
2022/05/03 02:04:57;;;;;;;9.50;3.65;;;;;;;;;;5118334;28;20050;-46
2022/05/03 02:07:28;;;;;;;9.55;3.78;;;;;;;;;;5123204;28;20078;-44
2022/05/03 02:09:53;;;;;;;;;;;;;;;;;;5122744;28;20039;-48
2022/05/03 02:12:20;;;;;;;6.27;3.27;;;;;;;;;;5122853;28;19987;-43
2022/05/03 02:14:52;;;;;;;10.55;2.70;;;;;;;;;;5121959;28;20271;-43
2022/05/03 02:17:30;;;;;;;4.75;3.08;;;;;;;;;;5121658;28;20043;-47
2022/05/03 02:19:55;;;;;;;4.68;4.13;;;;;;;;;;5121016;28;20111;-49
2022/05/03 02:22:27;;;;;;;13.57;4.28;;;;;;;;;;5122316;28;20060;-46
2022/05/03 02:25:17;;;;;;;3.95;3.15;;;;;;;;;;5122660;28;20051;-46
2022/05/03 02:27:47;;;;;;;15.00;4.55;;;;;;;;;;5121982;28;20070;-45
2022/05/03 02:30:13;;;;;;;7.80;3.58;;;;;;;;;;5122119;27;20065;-43
2022/05/03 02:33:10;;;;;;;4.75;3.45;;;;;;;;;;5125874;28;20133;-43
2022/05/03 02:35:36;;;;;;;7.90;4.30;;;;;;;;;;5077242;28;20134;-45
2022/05/03 02:38:03;;;;;;;6.93;3.22;;;;;;;;;;5126744;28;20684;-48
2022/05/03 02:40:29;;;;;;;5.43;3.67;;;;;;;;;;5125728;28;20406;-45
2022/05/03 02:42:56;;;;;;;4.32;2.78;;;;;;;;;;5126412;28;20043;-48
2022/05/03 02:45:21;;;;;;;6.03;4.40;;;;;;;;;;5122759;28;20062;-47
2022/05/03 02:47:49;;;;;;;12.93;4.00;;;;;;;;;;5121708;28;20035;-44
2022/05/03 02:50:20;;;;;;;4.57;2.90;;;;;;;;;;5120942;28;20123;-43
2022/05/03 02:52:57;;;;;;;7.68;3.55;;;;;;;;;;5122043;28;20074;-48
2022/05/03 02:55:31;;;;;;;10.07;3.65;;;;;;;;;;5119410;28;20051;-43
2022/05/03 02:57:56;;;;;;;11.40;4.43;;;;;;;;;;5117422;28;20039;-44
2022/05/03 03:03:06;;;;;;;10.48;3.97;;;;;;;;;;5122130;28;20046;-46
2022/05/03 03:05:34;;;;;;;15.38;4.63;;;;;;;;;;5121497;28;20122;-44
2022/05/03 03:08:03;;;;;;;6.78;3.42;;;;;;;;;;5121700;28;20042;-45
2022/05/03 03:10:57;;;;;;;7.35;3.50;;;;;;;;;;5121218;28;20105;-44
2022/05/03 03:13:38;;;;;;;8.35;3.95;;;;;;;;;;5029244;28;20091;-47
2022/05/03 03:16:04;;;;;;;14.68;3.85;;;;;;;;;;5121127;28;20043;-45
2022/05/03 03:18:31;;;;;;;4.85;3.10;;;;;;;;;;5121452;28;20043;-46
2022/05/03 03:20:59;;;;;;;10.18;3.47;;;;;;;;;;5121528;28;20406;-45
2022/05/03 03:23:30;;;;;;;4.55;3.10;;;;;;;;;;5121305;28;20103;-44
2022/05/03 03:25:57;;;;;;;5.88;4.00;;;;;;;;;;5103445;28;20042;-47
2022/05/03 03:28:23;;;;;;;9.82;3.65;;;;;;;;;;5121184;28;20035;-44
2022/05/03 03:30:52;;;;;;;5.63;3.80;;;;;;;;;;5120665;28;20042;-47
2022/05/03 03:33:18;;;;;;;5.90;4.72;;;;;;;;;;5121151;28;20035;-47
2022/05/03 03:35:44;;;;;;;7.82;5.35;;;;;;;;;;5120582;28;20081;-49
2022/05/03 03:38:10;;;;;;;13.27;4.78;;;;;;;;;;5121838;28;20039;-47
2022/05/03 03:40:35;;;;;;;8.85;5.70;;;;;;;;;;5120683;28;20072;-43
2022/05/03 03:43:01;;;;;;;5.93;4.35;;;;;;;;;;5120449;27;20043;-43
2022/05/03 03:45:27;;;;;;;12.55;4.32;;;;;;;;;;5123290;28;20134;-46
2022/05/03 03:47:53;;;;;;;4.25;3.55;;;;;;;;;;5124285;28;20124;-43
2022/05/03 03:50:19;;;;;;;4.80;4.25;;;;;;;;;;5124663;28;20047;-49
2022/05/03 03:52:46;;;;;;;4.45;3.75;;;;;;;;;;5124184;28;20061;-44
2022/05/03 03:55:12;;;;;;;12.27;4.72;;;;;;;;;;5125028;28;20500;-44
2022/05/03 03:57:38;;;;;;;12.15;4.10;;;;;;;;;;5124140;28;20054;-50
2022/05/03 04:00:05;;;;;;;7.00;3.50;;;;;;;;;;5125187;28;20391;-46
2022/05/03 04:02:30;;;;;;;4.28;3.35;;;;;;;;;;5121296;28;20710;-48
2022/05/03 04:04:55;;;;;;;5.43;2.63;;;;;;;;;;5125502;28;20043;-44
2022/05/03 04:07:21;;;;;;;5.55;4.30;;;;;;;;;;5125620;28;20073;-44
2022/05/03 04:09:46;;;;;;;3.45;2.58;;;;;;;;;;5124239;28;20063;-45
2022/05/03 04:12:12;;;;;;;3.72;2.80;;;;;;;;;;5124143;28;20095;-46
2022/05/03 04:14:37;;;;;;;6.05;3.03;;;;;;;;;;5124998;28;20039;-45
2022/05/03 04:17:03;;;;;;;10.20;3.35;;;;;;;;;;5124908;28;20043;-42
2022/05/03 04:19:28;;;;;;;13.85;4.78;;;;;;;;;;5124794;28;20062;-46
2022/05/03 04:21:53;;;;;;;9.15;3.33;;;;;;;;;;5124959;28;20374;-42
2022/05/03 04:24:19;;;;;;;8.30;3.10;;;;;;;;;;5125228;28;20031;-44
2022/05/03 04:26:44;;;;;;;3.25;2.30;;;;;;;;;;5125164;28;20046;-46
2022/05/03 04:29:10;;;;;;;8.75;3.53;;;;;;;;;;5124968;28;20036;-50
2022/05/03 04:31:35;;;;;;;3.33;2.08;;;;;;;;;;5125071;28;20047;-46
2022/05/03 04:34:03;;;;;;;8.40;3.33;;;;;;;;;;5124884;28;20038;-46
2022/05/03 04:36:29;;;;;;;3.05;2.28;;;;;;;;;;5125013;28;20050;-43
2022/05/03 04:38:54;;;;;;;17.63;3.28;;;;;;;;;;5124822;28;20043;-46
2022/05/03 04:41:21;;;;;;;8.43;5.25;;;;;;;;;;5123791;28;20403;-47
2022/05/03 04:43:46;;;;;;;4.47;3.10;;;;;;;;;;5125023;28;20051;-44
2022/05/03 04:46:11;;;;;;;6.82;2.58;;;;;;;;;;5125148;28;20565;-46
2022/05/03 04:48:37;;;;;;;5.78;2.38;;;;;;;;;;5125110;28;20423;-46
2022/05/03 04:51:02;;;;;;;3.05;2.17;;;;;;;;;;5124411;28;20566;-50
2022/05/03 04:53:28;;;;;;;5.85;3.10;;;;;;;;;;5126125;27;20055;-46
2022/05/03 04:55:53;;;;;;;2.47;1.92;;;;;;;;;;5128620;28;20031;-44
2022/05/03 04:58:18;;;;;;;11.80;2.42;;;;;;;;;;5127059;28;20069;-46
2022/05/03 05:00:45;;;;;;;21.17;4.60;;;;;;;;;;5127870;28;20520;-46
2022/05/03 05:03:10;;;;;;;3.30;1.60;;;;;;;;;;5128453;28;20015;-50
2022/05/03 05:05:36;;;;;;;4.75;2.17;;;;;;;;;;5128226;28;20485;-46
2022/05/03 05:08:02;;;;;;;16.55;3.38;;;;;;;;;;5127767;28;20035;-46
2022/05/03 05:10:28;;;;;;;7.35;3.33;;;;;;;;;;5126936;28;20079;-45
2022/05/03 05:12:54;;;;;;;4.60;2.15;;;;;;;;;;5127992;28;20138;-45
2022/05/03 05:15:21;;;;;;;14.63;3.95;;;;;;;;;;5128242;28;20039;-47
2022/05/03 05:17:46;;;;;;;3.83;2.47;;;;;;;;;;5127979;28;20051;-44
2022/05/03 05:20:11;;;;;;;9.30;3.05;;;;;;;;;;5128460;28;20051;-46
2022/05/03 05:22:37;;;;;;;3.45;2.20;;;;;;;;;;5127700;28;20781;-47
2022/05/03 05:25:02;;;;;;;5.15;2.92;;;;;;;;;;5127877;28;20035;-43
2022/05/03 05:27:27;;;;;;;7.88;3.08;;;;;;;;;;5125734;28;20058;-46
2022/05/03 05:29:53;;;;;;;5.63;3.63;;;;;;;;;;5125949;28;20050;-43
2022/05/03 05:32:19;;;;;;;4.38;2.95;;;;;;;;;;5128098;28;20050;-47
2022/05/03 05:34:44;;;;;;;5.25;2.55;;;;;;;;;;5127603;28;20042;-44
2022/05/03 05:37:09;;;;;;;2.30;1.48;;;;;;;;;;5127080;28;20027;-46
2022/05/03 05:39:35;;;;;;;7.45;3.10;;;;;;;;;;5126879;28;20126;-44
2022/05/03 05:42:01;;;;;;;5.80;2.38;;;;;;;;;;5127595;28;20066;-46
2022/05/03 05:44:27;;;;;;;4.43;2.22;;;;;;;;;;5127288;28;20047;-50
2022/05/03 05:46:52;;;;;;;15.88;3.83;;;;;;;;;;5126637;28;20055;-43
2022/05/03 05:49:18;;;;;;;3.80;2.60;;;;;;;;;;5127581;28;20539;-44
2022/05/03 05:51:45;;;;;;;11.77;3.83;;;;;;;;;;5107505;28;20661;-44
2022/05/03 05:54:10;;;;;;;10.77;2.83;;;;;;;;;;5127331;28;20078;-44
2022/05/03 05:56:35;;;;;;;4.47;2.75;;;;;;;;;;5127671;28;20506;-45
2022/05/03 05:59:00;;;;;;;11.75;4.05;;;;;;;;;;5126881;28;20073;-43
2022/05/03 06:01:26;;;;;;;7.07;3.60;;;;;;;;;;5127170;28;20558;-44
2022/05/03 06:03:51;;;;;;;6.28;4.13;;;;;;;;;;5127662;28;20047;-49
2022/05/03 06:06:17;;;;;;;3.65;2.90;;;;;;;;;;5126589;27;20150;-44
2022/05/03 06:08:42;;;;;;;5.40;3.50;;;;;;;;;;5127252;28;20039;-47
2022/05/03 06:11:08;;;;;;;3.88;2.45;;;;;;;;;;5126742;28;20039;-48
2022/05/03 06:13:34;;;;;;;7.88;3.13;;;;;;;;;;5126738;28;20040;-43
2022/05/03 06:16:09;;;;;;;6.43;4.10;;;;;;;;;;5127197;28;20326;-44
2022/05/03 06:18:34;;;;;;;5.60;3.00;;;;;;;;;;5126930;28;20067;-49
2022/05/03 06:21:01;;;;;;;6.63;2.17;;;;;;;;;;5126895;28;20721;-45
2022/05/03 06:23:27;;;;;;;4.90;2.88;;;;;;;;;;5126214;28;20051;-46
2022/05/03 06:25:52;;;;;;;5.10;2.83;;;;;;;;;;5126219;28;20061;-45
2022/05/03 06:28:19;;;;;;;12.98;4.10;;;;;;;;;;5127234;28;20053;-51
2022/05/03 06:30:44;;;;;;;6.97;2.78;;;;;;;;;;5126552;28;20723;-47
2022/05/03 06:33:09;;;;;;;6.38;2.65;;;;;;;;;;5126783;28;20125;-47
2022/05/03 06:35:35;;;;;;;10.38;3.40;;;;;;;;;;5127164;28;20047;-45
2022/05/03 06:38:00;;;;;;;4.57;3.50;;;;;;;;;;5127351;28;20426;-47
2022/05/03 06:40:25;;;;;;;6.78;4.38;;;;;;;;;;5127140;28;20141;-44
2022/05/03 06:42:51;;;;;;;9.30;4.65;;;;;;;;;;5108863;28;20406;-45
2022/05/03 06:45:17;;;;;;;4.50;3.28;;;;;;;;;;5126761;28;20042;-45
2022/05/03 06:47:42;;;;;;;10.98;2.88;;;;;;;;;;5127326;28;20617;-51
2022/05/03 06:50:08;;;;;;;3.78;2.67;;;;;;;;;;5126429;28;20043;-51
2022/05/03 06:52:34;;;;;;;8.10;3.97;;;;;;;;;;5126503;28;20097;-52
2022/05/03 06:54:59;;;;;;;13.68;5.05;;;;;;;;;;5108538;28;20042;-53
2022/05/03 06:57:25;;;;;;;68.50;5.75;;;;;;;;;;5125826;28;20039;-53
2022/05/03 06:59:50;;;;;;;26.85;8.02;;;;;;;;;;5126934;28;20043;-51
2022/05/03 07:02:16;;;;;;;18.23;5.13;;;;;;;;;;5098298;28;20130;-52
2022/05/03 07:04:44;;;;;;;8.68;4.28;;;;;;;;;;5125561;28;20043;-51
2022/05/03 07:07:09;;;;;;;7.78;3.13;;;;;;;;;;5108227;28;20529;-52
2022/05/03 07:09:35;;;;;;;17.73;4.60;;;;;;;;;;5127067;28;20126;-53
2022/05/03 07:12:00;;;;;;;11.68;5.25;;;;;;;;;;5126116;28;20458;-52
2022/05/03 07:14:25;;;;;;;4.05;3.17;;;;;;;;;;5126135;28;20046;-52
2022/05/03 07:16:51;;;;;;;10.13;3.80;;;;;;;;;;5124475;27;20568;-51
2022/05/03 07:24:45;;;;;;;8.25;4.53;;;;;;;;;;5127197;28;20047;-51
2022/05/03 07:27:10;;;;;;;9.90;3.55;;;;;;;;;;5125953;28;20474;-52
2022/05/03 07:29:35;;;;;;;7.88;3.95;;;;;;;;;;5125963;28;20067;-54
2022/05/03 07:32:01;;;;;;;5.15;3.08;;;;;;;;;;5125621;28;20075;-54
2022/05/03 07:34:26;;;;;;;4.15;3.45;;;;;;;;;;5126350;28;20055;-54
2022/05/03 07:36:51;;;;;;;7.68;3.55;;;;;;;;;;5126568;28;20695;-49
2022/05/03 07:39:17;;;;;;;5.85;4.65;;;;;;;;;;5126485;28;20058;-49
2022/05/03 07:41:42;;;;;;;4.10;3.05;;;;;;;;;;5125912;28;21032;-55
2022/05/03 07:44:07;;;;;;;7.78;4.93;;;;;;;;;;5126792;28;20058;-55
2022/05/03 07:46:33;;;;;;;5.88;3.50;;;;;;;;;;5126500;28;20031;-52
2022/05/03 07:48:58;;;;;;;4.55;3.20;;;;;;;;;;5126835;28;20055;-54
2022/05/03 07:51:24;;;;;;;7.75;3.70;;;;;;;;;;5126273;28;20051;-51
2022/05/03 07:53:49;;;;;;;5.57;4.35;;;;;;;;;;5126216;28;20047;-50
2022/05/03 07:56:14;;;;;;;12.07;6.65;;;;;;;;;;5126004;28;20051;-54
2022/05/03 07:58:40;;;;;;;8.15;3.38;;;;;;;;;;5126270;28;20066;-53
2022/05/03 08:01:05;;;;;;;7.90;4.03;;;;;;;;;;5125786;28;20073;-53
2022/05/03 08:03:31;;;;;;;6.75;3.50;;;;;;;;;;5125934;28;20779;-53
2022/05/03 08:05:56;;;;;;;6.13;3.65;;;;;;;;;;5125573;28;20039;-52
2022/05/03 08:08:21;;;;;;;17.80;5.47;;;;;;;;;;5125681;28;20046;-51
2022/05/03 08:10:47;;;;;;;11.02;3.70;;;;;;;;;;5125225;28;20043;-51
2022/05/03 08:13:12;;;;;;;13.05;3.83;;;;;;;;;;5125457;28;20043;-53
2022/05/03 08:15:39;;;;;;;22.52;4.80;;;;;;;;;;5125333;28;20110;-55
2022/05/03 08:18:04;;;;;;;4.47;3.53;;;;;;;;;;5125724;28;20137;-49
2022/05/03 08:20:30;;;;;;;13.02;3.88;;;;;;;;;;5125545;28;20212;-54
2022/05/03 08:22:55;;;;;;;6.70;3.33;;;;;;;;;;5125350;28;20039;-51
2022/05/03 08:25:20;;;;;;;8.68;3.95;;;;;;;;;;5124988;28;20123;-52
2022/05/03 08:27:46;;;;;;;4.32;3.67;;;;;;;;;;5118624;27;20043;-54
2022/05/03 08:30:12;;;;;;;9.90;2.85;;;;;;;;;;5121700;28;20580;-55
2022/05/03 08:32:37;;;;;;;13.80;5.40;;;;;;;;;;5124592;28;20075;-55
2022/05/03 08:35:03;;;;;;;8.68;2.80;;;;;;;;;;5124394;28;20845;-55
2022/05/03 08:42:56;;;;;;;10.88;3.45;;;;;;;;;;5123830;28;20071;-54
2022/05/03 08:45:21;;;;;;;9.18;4.35;;;;;;;;;;5124197;28;20439;-53
2022/05/03 08:47:47;;;;;;;6.15;3.00;;;;;;;;;;5123540;28;20039;-52
2022/05/03 08:50:13;;;;;;;5.07;3.75;;;;;;;;;;5124707;28;20043;-53
2022/05/03 08:52:54;;;;;;;5.15;2.53;;;;;;;;;;5124002;28;20047;-52
2022/05/03 08:55:21;;;;;;;7.55;4.20;;;;;;;;;;5124489;28;20047;-51
2022/05/03 08:57:47;;;;;;;7.95;3.30;;;;;;;;;;5123730;28;20070;-50
2022/05/03 09:00:13;;;;;;;9.85;4.03;;;;;;;;;;5124606;28;20518;-50
2022/05/03 09:02:42;;;;;;;6.40;4.30;;;;;;;;;;5123782;28;20043;-53
2022/05/03 09:05:08;;;;;;;8.52;3.85;;;;;;;;;;5104274;28;20238;-50
2022/05/03 09:07:36;;;;;;;4.38;3.08;;;;;;;;;;5125352;28;20101;-51
2022/05/03 09:10:14;;;;;;;4.28;3.60;;;;;;;;;;5123636;28;20050;-49
2022/05/03 09:12:39;;;;;;;9.02;5.40;;;;;;;;;;5124285;28;20100;-55
2022/05/03 09:15:05;;;;;;;3.72;2.75;;;;;;;;;;5123501;28;20051;-51
2022/05/03 09:17:41;;;;;;;13.73;3.50;;;;;;;;;;5124632;28;20945;-55
2022/05/03 09:25:49;;;;;;;13.77;4.93;;;;;;;;;;5124016;28;20100;-54
2022/05/03 09:28:15;;;;;;;7.90;3.58;;;;;;;;;;5123141;28;20043;-48
2022/05/03 09:30:47;;;;;;;11.77;4.20;;;;;;;;;;5122182;28;20163;-54
2022/05/03 09:33:18;;;;;;;8.65;2.92;;;;;;;;;;5123202;28;20489;-53
2022/05/03 09:35:44;;;;;;;4.68;3.05;;;;;;;;;;5123113;28;20054;-52
2022/05/03 09:38:09;;;;;;;13.25;3.35;;;;;;;;;;5122682;28;20050;-51
2022/05/03 09:40:35;;;;;;;3.85;2.45;;;;;;;;;;5122973;27;20438;-51
2022/05/03 09:43:00;;;;;;;10.93;3.50;;;;;;;;;;5123363;28;20552;-50
2022/05/03 09:45:26;;;;;;;4.03;2.65;;;;;;;;;;5123980;28;20051;-54
2022/05/03 09:47:56;;;;;;;3.25;1.85;;;;;;;;;;5121449;28;20063;-50
2022/05/03 09:50:36;;;;;;;2.55;2.08;;;;;;;;;;5125990;28;20145;-56
2022/05/03 09:53:10;;;;;;;3.33;2.17;;;;;;;;;;5128271;28;20051;-55
2022/05/03 09:55:37;;;;;;;3.45;1.58;;;;;;;;;;5126428;28;20035;-54
2022/05/03 09:58:03;;;;;;;6.93;2.17;;;;;;;;;;5127774;28;20104;-56
2022/05/03 10:00:30;;;;;;;14.02;2.65;;;;;;;;;;5128224;28;20048;-57
2022/05/03 10:02:57;;;;;;;9.65;3.40;;;;;;;;;;5128277;28;20039;-53
2022/05/03 10:05:24;;;;;;;7.78;4.30;;;;;;;;;;5125745;28;20043;-53
2022/05/03 10:07:50;;;;;;;22.95;3.80;;;;;;;;;;5127156;28;20070;-51
2022/05/03 10:10:16;;;;;;;10.68;3.30;;;;;;;;;;5127700;28;20043;-55
2022/05/03 10:12:42;;;;;;;14.05;4.22;;;;;;;;;;5125473;28;20054;-53
2022/05/03 10:15:08;;;;;;;7.00;3.45;;;;;;;;;;5127420;28;20110;-53
2022/05/03 10:20:40;;;;;;;4.40;2.97;;;;;;;;;;5126768;28;20092;-56
2022/05/03 10:23:22;;;;;;;5.22;3.55;;;;;;;;;;5127171;28;20063;-53
2022/05/03 10:25:47;;;;;;;5.75;3.42;;;;;;;;;;5125715;28;20051;-56
2022/05/03 10:28:13;;;;;;;9.02;4.10;;;;;;;;;;5127187;28;20066;-55
2022/05/03 10:30:39;;;;;;;8.90;4.07;;;;;;;;;;5126329;28;20507;-51
2022/05/03 10:33:19;;;;;;;9.25;4.00;;;;;;;;;;5127300;28;20146;-54
2022/05/03 10:35:44;;;;;;;6.47;4.43;;;;;;;;;;5126092;28;20149;-50
2022/05/03 10:38:10;;;;;;;7.13;4.05;;;;;;;;;;5126131;28;20517;-52
2022/05/03 10:40:40;;;;;;;10.50;4.05;;;;;;;;;;5126763;28;20049;-54
2022/05/03 10:43:12;;;;;;;10.32;3.63;;;;;;;;;;5126417;28;20074;-53
2022/05/03 10:45:48;;;;;;;6.10;4.30;;;;;;;;;;5125759;28;20047;-55
2022/05/03 10:48:23;;;;;;;6.63;4.05;;;;;;;;;;5127062;28;20035;-50
2022/05/03 10:50:50;;;;;;;13.13;4.18;;;;;;;;;;5125777;27;20039;-55
2022/05/03 10:53:18;;;;;;;10.20;4.10;;;;;;;;;;5126514;28;20047;-55
2022/05/03 10:56:03;;;;;;;3.90;3.13;;;;;;;;;;5126755;28;20039;-55
2022/05/03 10:58:29;;;;;;;8.75;2.78;;;;;;;;;;5126180;28;20488;-55
2022/05/03 11:01:04;;;;;;;9.55;4.25;;;;;;;;;;5125230;28;20043;-53
2022/05/03 11:03:30;;;;;;;10.13;2.63;;;;;;;;;;5126280;28;20162;-54
2022/05/03 11:06:13;;;;;;;13.98;3.45;;;;;;;;;;5126835;28;20154;-48
2022/05/03 11:11:40;;;;;;;11.32;3.78;;;;;;;;;;5126243;28;20155;-56
2022/05/03 11:14:06;;;;;;;13.77;4.75;;;;;;;;;;5104766;28;20130;-52
2022/05/03 11:16:34;;;;;;;9.68;4.35;;;;;;;;;;5126389;28;20038;-52
2022/05/03 11:19:10;;;;;;;4.63;3.20;;;;;;;;;;5123000;28;20059;-53
2022/05/03 11:21:36;;;;;;;6.40;4.03;;;;;;;;;;5124213;28;20286;-51
2022/05/03 11:24:01;;;;;;;4.93;3.75;;;;;;;;;;5124490;28;20534;-55
2022/05/03 11:26:26;;;;;;;4.70;3.30;;;;;;;;;;5126211;28;20047;-54
2022/05/03 11:28:53;;;;;;;8.70;3.05;;;;;;;;;;5125535;28;20035;-54
2022/05/03 11:31:22;;;;;;;22.55;4.13;;;;;;;;;;5125878;28;20518;-55
2022/05/03 11:33:51;;;;;;;8.30;4.15;;;;;;;;;;5123872;28;20112;-53
2022/05/03 11:36:17;;;;;;;13.48;3.60;;;;;;;;;;5125465;28;20043;-53
2022/05/03 11:38:42;;;;;;;7.00;4.25;;;;;;;;;;5125390;28;20633;-54
2022/05/03 11:41:09;;;;;;;8.68;4.07;;;;;;;;;;5125702;28;20047;-56
2022/05/03 11:43:34;;;;;;;7.10;4.05;;;;;;;;;;5125434;28;20066;-52
2022/05/03 11:45:59;;;;;;;4.47;3.30;;;;;;;;;;5125652;28;20035;-53
2022/05/03 11:48:25;;;;;;;6.57;3.47;;;;;;;;;;5125804;28;20031;-54
2022/05/03 11:56:24;;;;;;;8.35;3.63;;;;;;;;;;5125000;28;20088;-53
2022/05/03 11:58:50;;;;;;;8.38;3.75;;;;;;;;;;5125638;28;20043;-55
2022/05/03 12:01:16;;;;;;;10.73;3.75;;;;;;;;;;5125691;28;20881;-53
2022/05/03 12:03:48;;;;;;;4.40;3.45;;;;;;;;;;5122605;27;20510;-55
2022/05/03 12:06:15;;;;;;;3.55;2.65;;;;;;;;;;5125987;28;20099;-55
2022/05/03 12:08:40;;;;;;;8.20;2.75;;;;;;;;;;5125459;28;20039;-55
2022/05/03 12:11:15;;;;;;;4.97;3.17;;;;;;;;;;5125069;28;20058;-54
2022/05/03 12:13:40;;;;;;;4.57;2.28;;;;;;;;;;5125340;28;20054;-53
2022/05/03 12:16:11;;;;;;;7.80;3.70;;;;;;;;;;5125223;28;20051;-54
2022/05/03 12:18:40;;;;;;;14.23;2.55;;;;;;;;;;5124544;28;20498;-56
2022/05/03 12:21:21;;;;;;;1.92;1.27;;;;;;;;;;5123228;28;20126;-52
2022/05/03 12:23:47;;;;;;;6.70;4.03;;;;;;;;;;5125150;28;20066;-55
2022/05/03 12:26:12;;;;;;;18.77;3.45;;;;;;;;;;5123458;28;20297;-57
2022/05/03 12:28:39;;;;;;;6.97;2.83;;;;;;;;;;5125266;28;20066;-56
2022/05/03 12:31:05;;;;;;;9.27;2.55;;;;;;;;;;5124710;28;20047;-57
2022/05/03 12:33:32;;;;;;;10.95;2.58;;;;;;;;;;5124172;28;20043;-55
2022/05/03 12:35:58;;;;;;;10.40;4.32;;;;;;;;;;5125247;28;20058;-57
2022/05/03 12:38:26;;;;;;;6.45;3.63;;;;;;;;;;5125139;28;20043;-51
2022/05/03 12:40:52;;;;;;;15.07;2.50;;;;;;;;;;5124748;28;20157;-58
2022/05/03 12:43:21;;;;;;;15.93;3.92;;;;;;;;;;5124919;28;20031;-53
2022/05/03 12:45:57;;;;;;;9.10;3.40;;;;;;;;;;5124575;28;20050;-58
2022/05/03 12:48:22;;;;;;;10.07;2.65;;;;;;;;;;5124637;28;20063;-59
2022/05/03 12:50:48;;;;;;;4.25;3.22;;;;;;;;;;5105680;28;20086;-57
2022/05/03 12:53:14;;;;;;;4.07;3.33;;;;;;;;;;5124527;28;20054;-57
2022/05/03 12:55:39;;;;;;;8.23;4.65;;;;;;;;;;5125061;28;20043;-58
2022/05/03 12:58:38;;;;;;;7.60;3.08;;;;;;;;;;5122903;28;20134;-59
2022/05/03 13:00:59;;;;;;;4.15;3.33;;;;;;;;;;5119129;28;20400;-59
2022/05/03 13:03:28;;;;;;;5.57;3.60;;;;;;;;;;5123845;28;20058;-61
2022/05/03 13:05:54;;;;;;;13.65;4.00;;;;;;;;;;5121258;28;20035;-60
2022/05/03 13:08:19;;;;;;;18.58;3.45;;;;;;;;;;5124010;28;20043;-60
2022/05/03 13:10:45;;;;;;;9.65;3.45;;;;;;;;;;5122048;28;20065;-58
2022/05/03 13:13:11;;;;;;;15.57;4.95;;;;;;;;;;5124077;28;20085;-60
2022/05/03 13:15:38;;;;;;;4.68;1.85;;;;;;;;;;5127117;27;20067;-57
2022/05/03 13:18:04;;;;;;;7.13;3.00;;;;;;;;;;5126897;28;20066;-54
2022/05/03 13:20:29;;;;;;;7.25;3.45;;;;;;;;;;5127777;28;20055;-51
2022/05/03 13:22:55;;;;;;;13.20;2.78;;;;;;;;;;5128179;28;20035;-55
2022/05/03 13:25:21;;;;;;;5.65;3.30;;;;;;;;;;5128196;28;20626;-53
2022/05/03 13:27:46;;;;;;;6.75;2.85;;;;;;;;;;5127894;28;20497;-50
2022/05/03 13:30:12;;;;;;;10.90;2.80;;;;;;;;;;5125471;28;20111;-52
2022/05/03 13:32:40;;;;;;;18.73;4.80;;;;;;;;;;5126193;28;20098;-55
2022/05/03 13:35:06;;;;;;;13.02;3.22;;;;;;;;;;5126598;28;20085;-54
2022/05/03 13:40:30;;;;;;;8.35;2.70;;;;;;;;;;5122891;28;20198;-52
2022/05/03 13:43:00;;;;;;;13.32;4.13;;;;;;;;;;5126719;28;20050;-54
2022/05/03 13:45:26;;;;;;;7.07;3.42;;;;;;;;;;5126380;28;20043;-52
2022/05/03 13:47:52;;;;;;;4.97;2.53;;;;;;;;;;5126530;28;20099;-53
2022/05/03 13:50:17;;;;;;;8.95;5.10;;;;;;;;;;5126603;28;20479;-54
2022/05/03 13:52:42;;;;;;;7.10;2.35;;;;;;;;;;5126650;28;20687;-55
2022/05/03 13:55:08;;;;;;;11.77;2.95;;;;;;;;;;5126786;28;20539;-53
2022/05/03 13:57:34;;;;;;;28.35;5.13;;;;;;;;;;5126706;28;20135;-51
2022/05/03 13:59:59;;;;;;;48.70;9.02;;;;;;;;;;5126004;28;20055;-53
2022/05/03 14:02:24;;;;;;;9.38;3.95;;;;;;;;;;5124818;28;20119;-49
2022/05/03 14:04:50;;;;;;;7.22;4.28;;;;;;;;;;5126166;28;20047;-53
2022/05/03 14:07:16;;;;;;;5.30;3.33;;;;;;;;;;5125151;28;20043;-49
2022/05/03 14:09:42;;;;;;;2.85;1.90;;;;;;;;;;5126609;28;20114;-51
2022/05/03 14:12:08;;;;;;;6.90;3.92;;;;;;;;;;5125966;28;20034;-55
2022/05/03 14:14:34;;;;;;;19.83;4.32;;;;;;;;;;5126484;28;20046;-47
2022/05/03 14:16:59;;;;;;;11.65;3.45;;;;;;;;;;5126830;28;20050;-57
2022/05/03 14:19:24;;;;;;;6.50;3.55;;;;;;;;;;5125886;28;20046;-51
2022/05/03 14:21:50;;;;;;;12.43;3.22;;;;;;;;;;5126744;28;20031;-47
2022/05/03 14:24:15;;;;;;;3.30;2.97;;;;;;;;;;5126470;28;20039;-49
2022/05/03 14:26:41;;;;;;;16.85;4.93;;;;;;;;;;5122965;27;20134;-55
2022/05/03 14:29:07;;;;;;;3.42;2.55;;;;;;;;;;5125886;28;20039;-53
2022/05/03 14:31:36;;;;;;;14.07;2.92;;;;;;;;;;5124594;28;20128;-55
2022/05/03 14:34:01;;;;;;;4.43;2.83;;;;;;;;;;5125099;28;20410;-55
2022/05/03 14:36:30;;;;;;;7.07;3.08;;;;;;;;;;5127010;28;20042;-53
2022/05/03 14:38:56;;;;;;;7.18;3.58;;;;;;;;;;5098209;28;20082;-54
2022/05/03 14:41:21;;;;;;;10.02;2.60;;;;;;;;;;5126852;28;20425;-52
2022/05/03 14:43:46;;;;;;;7.22;3.50;;;;;;;;;;5126371;28;20038;-55
2022/05/03 14:46:12;;;;;;;5.90;2.70;;;;;;;;;;5126674;28;20490;-53
2022/05/03 14:48:37;;;;;;;7.20;3.42;;;;;;;;;;5126486;28;20041;-54
2022/05/03 14:51:03;;;;;;;4.85;4.35;;;;;;;;;;5124709;28;20031;-52
2022/05/03 14:53:29;;;;;;;6.18;3.90;;;;;;;;;;5125622;28;20043;-54
2022/05/03 15:04:06;;;;;;;3.88;2.35;;;;;;;;;;5125869;28;20038;-53
2022/05/03 15:06:32;;;;;;;8.82;3.92;;;;;;;;;;5126118;28;20032;-53
2022/05/03 15:08:57;;;;;;;11.57;2.88;;;;;;;;;;5125626;28;20037;-52
2022/05/03 15:11:23;;;;;;;5.70;2.50;;;;;;;;;;5125496;28;20047;-53
2022/05/03 15:13:48;;;;;;;5.65;2.83;;;;;;;;;;5126226;28;20039;-53
2022/05/03 15:16:13;;;;;;;5.55;3.15;;;;;;;;;;5119831;28;20502;-52
2022/05/03 15:18:40;;;;;;;7.63;2.78;;;;;;;;;;5119713;28;20672;-53
2022/05/03 15:21:06;;;;;;;11.60;5.00;;;;;;;;;;5120699;28;20362;-52
2022/05/03 15:26:15;;;;;;;5.72;2.55;;;;;;;;;;5121036;28;20050;-51
2022/05/03 15:28:40;;;;;;;10.23;3.50;;;;;;;;;;5120491;28;20035;-47
2022/05/03 15:31:07;;;;;;;8.55;2.53;;;;;;;;;;5118905;28;20051;-53